Time;durP1;ratioP1;P1;durP2;ratioP2;P2;SDS_P1;SDS_P2;PMS_P1;PMS_P2;Temp;Humidity;BMP_temperature;BMP_pressure;BME280_temperature;BME280_humidity;BME280_pressure;Samples;Min_cycle;Max_cycle;Signal;HPM_P1;HPM_P2
2022/11/14 00:00:58;;;;;;;24.47;13.77;;;7.80;99.90;;;;;;5041809;28;20466;-85
2022/11/14 00:03:23;;;;;;;21.57;13.23;;;7.80;99.90;;;;;;5043729;28;20715;-85
2022/11/14 00:05:49;;;;;;;28.00;15.00;;;7.80;99.90;;;;;;5040556;28;20427;-84
2022/11/14 00:08:22;;;;;;;24.83;13.53;;;7.80;99.90;;;;;;5023135;28;20601;-85
2022/11/14 00:10:49;;;;;;;22.23;13.50;;;7.80;99.90;;;;;;5043380;28;20226;-86
2022/11/14 00:13:18;;;;;;;27.30;13.33;;;7.70;99.90;;;;;;5042660;28;20415;-85
2022/11/14 00:15:49;;;;;;;23.47;12.73;;;7.70;99.90;;;;;;5041324;28;20427;-85
2022/11/14 00:18:14;;;;;;;25.73;16.73;;;7.70;99.90;;;;;;5042757;28;20467;-84
2022/11/14 00:20:40;;;;;;;30.80;15.07;;;7.70;99.90;;;;;;5044894;28;20417;-85
2022/11/14 00:23:05;;;;;;;28.07;15.07;;;7.70;99.90;;;;;;5041366;28;20217;-85
2022/11/14 00:25:31;;;;;;;28.10;15.00;;;7.70;99.90;;;;;;5043868;28;20629;-84
2022/11/14 00:27:57;;;;;;;23.57;12.60;;;7.70;99.90;;;;;;5050269;28;20252;-84
2022/11/14 00:30:23;;;;;;;25.37;14.90;;;7.70;99.90;;;;;;5051968;28;20418;-84
2022/11/14 00:32:49;;;;;;;25.30;14.40;;;7.60;99.90;;;;;;5052181;28;20426;-84
2022/11/14 00:35:14;;;;;;;30.80;17.00;;;7.70;99.90;;;;;;5052416;28;20624;-85
2022/11/14 00:37:40;;;;;;;30.73;15.50;;;7.70;99.90;;;;;;5052155;28;20204;-85
2022/11/14 00:40:06;;;;;;;26.23;13.23;;;7.80;99.90;;;;;;5052139;28;20170;-84
2022/11/14 00:42:31;;;;;;;22.13;13.93;;;7.70;99.90;;;;;;5051968;28;20235;-84
2022/11/14 00:44:57;;;;;;;24.43;13.20;;;7.70;99.90;;;;;;5051755;28;20416;-84
2022/11/14 00:47:22;;;;;;;27.27;15.53;;;7.70;99.90;;;;;;5052099;28;20252;-85
2022/11/14 00:49:48;;;;;;;28.10;14.30;;;7.70;99.90;;;;;;5042059;28;20179;-85
2022/11/14 00:52:13;;;;;;;26.63;14.30;;;7.70;99.90;;;;;;5042332;28;20180;-84
2022/11/14 00:54:39;;;;;;;26.93;14.60;;;7.70;99.90;;;;;;5051974;28;20175;-85
2022/11/14 00:57:04;;;;;;;24.40;14.10;;;7.70;99.90;;;;;;5051998;28;20206;-84
2022/11/14 00:59:29;;;;;;;23.87;15.00;;;7.60;99.90;;;;;;5051735;28;20609;-85
2022/11/14 01:01:55;;;;;;;24.90;13.80;;;7.70;99.90;;;;;;5051879;28;20174;-84
2022/11/14 01:04:20;;;;;;;28.10;15.10;;;7.70;99.90;;;;;;5051887;28;20221;-84
2022/11/14 01:06:49;;;;;;;23.90;15.13;;;7.70;99.90;;;;;;5052108;28;20657;-85
2022/11/14 01:09:15;;;;;;;23.77;13.57;;;7.60;99.90;;;;;;5051920;28;20619;-85
2022/11/14 01:11:40;;;;;;;27.53;16.20;;;7.70;99.90;;;;;;5051718;28;20424;-85
2022/11/14 01:14:06;;;;;;;25.60;16.27;;;7.70;99.90;;;;;;5052461;28;20988;-84
2022/11/14 01:16:32;;;;;;;31.27;16.20;;;7.60;99.90;;;;;;5052757;28;20201;-85
2022/11/14 01:18:57;;;;;;;28.43;14.03;;;7.70;99.90;;;;;;5053141;28;20450;-85
2022/11/14 01:21:23;;;;;;;25.80;14.87;;;7.70;99.90;;;;;;5053336;28;20177;-85
2022/11/14 01:23:48;;;;;;;27.77;14.90;;;7.60;99.90;;;;;;5053014;28;20179;-85
2022/11/14 01:26:14;;;;;;;25.17;15.27;;;7.70;99.90;;;;;;5053288;28;20262;-86
2022/11/14 01:28:40;;;;;;;27.53;16.00;;;7.60;99.90;;;;;;5053238;28;20622;-85
2022/11/14 01:31:16;;;;;;;26.10;14.40;;;7.70;99.90;;;;;;5052803;28;20253;-85
2022/11/14 01:33:42;;;;;;;26.37;15.50;;;7.70;99.90;;;;;;5053007;28;20180;-85
2022/11/14 01:36:09;;;;;;;28.03;15.37;;;7.60;99.90;;;;;;5052985;28;20859;-84
2022/11/14 01:38:35;;;;;;;25.70;15.07;;;7.60;99.90;;;;;;5052906;28;20783;-85
2022/11/14 01:41:02;;;;;;;32.40;17.13;;;7.70;99.90;;;;;;5052783;28;20441;-84
2022/11/14 01:43:31;;;;;;;35.27;17.43;;;7.60;99.90;;;;;;5052757;28;20473;-84
2022/11/14 01:46:15;;;;;;;26.43;15.70;;;7.60;99.90;;;;;;5052483;28;20465;-85
2022/11/14 01:48:52;;;;;;;23.43;14.60;;;7.60;99.90;;;;;;5052861;28;20419;-84
2022/11/14 01:51:28;;;;;;;31.20;15.83;;;7.60;99.90;;;;;;5052848;28;20832;-84
2022/11/14 01:53:57;;;;;;;27.77;16.40;;;7.60;99.90;;;;;;5052657;28;20469;-84
2022/11/14 01:56:39;;;;;;;21.87;13.83;;;7.60;99.90;;;;;;5034986;28;20435;-85
2022/11/14 01:59:08;;;;;;;25.90;14.10;;;7.60;99.90;;;;;;5053358;28;20498;-85
2022/11/14 02:01:39;;;;;;;28.30;15.70;;;7.60;99.90;;;;;;5054737;28;20422;-85
2022/11/14 02:04:06;;;;;;;33.87;16.20;;;7.60;99.90;;;;;;5057810;28;20401;-84
2022/11/14 02:06:32;;;;;;;33.43;17.70;;;7.60;99.90;;;;;;5058077;28;20419;-86
2022/11/14 02:09:01;;;;;;;29.13;16.70;;;7.60;99.90;;;;;;5069548;28;20404;-85
2022/11/14 02:11:35;;;;;;;27.70;17.07;;;7.60;99.90;;;;;;5057350;28;20502;-84
2022/11/14 02:14:00;;;;;;;26.53;14.63;;;7.60;99.90;;;;;;5057416;28;20419;-84
2022/11/14 02:16:27;;;;;;;27.40;15.47;;;7.60;99.90;;;;;;5055976;28;20414;-84
2022/11/14 02:18:53;;;;;;;29.83;15.70;;;7.60;99.90;;;;;;5056287;28;20545;-84
2022/11/14 02:21:18;;;;;;;26.13;15.90;;;7.60;99.90;;;;;;5056129;28;20500;-85
2022/11/14 02:23:44;;;;;;;30.37;15.90;;;7.60;99.90;;;;;;5056140;28;20178;-85
2022/11/14 02:26:09;;;;;;;27.00;16.47;;;7.60;99.90;;;;;;5056026;28;20222;-84
2022/11/14 02:28:35;;;;;;;32.00;15.93;;;7.60;99.90;;;;;;5056056;28;20235;-84
2022/11/14 02:31:01;;;;;;;31.83;17.50;;;7.60;99.90;;;;;;5055751;28;20176;-84
2022/11/14 02:33:26;;;;;;;28.90;16.03;;;7.60;99.90;;;;;;5055905;28;20179;-84
2022/11/14 02:35:51;;;;;;;27.97;15.77;;;7.60;99.90;;;;;;5038044;28;20169;-85
2022/11/14 02:38:17;;;;;;;29.03;16.87;;;7.60;99.90;;;;;;5055706;28;20211;-84
2022/11/14 02:40:42;;;;;;;29.63;15.20;;;7.60;99.90;;;;;;5055765;28;20168;-85
2022/11/14 02:43:08;;;;;;;30.40;15.73;;;7.60;99.90;;;;;;5055826;28;20218;-86
2022/11/14 02:45:33;;;;;;;26.67;17.20;;;7.60;99.90;;;;;;5055177;28;20273;-85
2022/11/14 02:47:59;;;;;;;26.03;14.67;;;7.50;99.90;;;;;;5055679;28;20183;-85
2022/11/14 02:50:24;;;;;;;24.40;14.17;;;7.60;99.90;;;;;;5037802;28;20241;-85
2022/11/14 02:52:52;;;;;;;34.77;17.53;;;7.60;99.90;;;;;;5055577;28;20254;-84
2022/11/14 02:55:18;;;;;;;23.10;13.77;;;7.60;99.90;;;;;;5055533;28;20178;-84
2022/11/14 02:57:44;;;;;;;30.73;17.83;;;7.50;99.90;;;;;;5055448;28;20501;-86
2022/11/14 03:00:10;;;;;;;27.70;16.67;;;7.50;99.90;;;;;;5037010;28;20923;-86
2022/11/14 03:02:35;;;;;;;32.50;17.07;;;7.50;99.90;;;;;;5055281;28;20188;-86
2022/11/14 03:05:01;;;;;;;29.33;17.90;;;7.50;99.90;;;;;;5037405;28;20494;-85
2022/11/14 03:07:26;;;;;;;25.97;15.80;;;7.50;99.90;;;;;;5055027;28;20267;-85
2022/11/14 03:09:52;;;;;;;28.57;16.23;;;7.50;99.90;;;;;;5055035;28;20232;-85
2022/11/14 03:12:18;;;;;;;30.27;16.87;;;7.50;99.90;;;;;;5036813;28;20211;-86
2022/11/14 03:14:44;;;;;;;27.37;16.30;;;7.50;99.90;;;;;;5054870;28;20635;-86
2022/11/14 03:17:09;;;;;;;29.53;17.30;;;7.50;99.90;;;;;;5037151;28;20577;-85
2022/11/14 03:19:35;;;;;;;30.20;16.70;;;7.50;99.90;;;;;;5054977;28;20183;-85
2022/11/14 03:22:00;;;;;;;32.87;19.00;;;7.50;99.90;;;;;;5054892;28;20184;-85
2022/11/14 03:24:26;;;;;;;30.90;18.23;;;7.50;99.90;;;;;;5054825;28;20172;-84
2022/11/14 03:26:51;;;;;;;33.90;16.30;;;7.50;99.90;;;;;;5054877;28;20251;-85
2022/11/14 03:29:17;;;;;;;31.60;17.30;;;7.50;99.90;;;;;;5054592;28;20532;-85
2022/11/14 03:31:42;;;;;;;28.17;15.20;;;7.50;99.90;;;;;;5054916;28;20211;-84
2022/11/14 03:34:09;;;;;;;29.70;18.00;;;7.50;99.90;;;;;;5054580;28;20713;-84
2022/11/14 03:36:35;;;;;;;26.60;16.03;;;7.50;99.90;;;;;;5054633;28;20205;-84
2022/11/14 03:39:03;;;;;;;26.40;15.10;;;7.50;99.90;;;;;;5054656;28;20423;-84
2022/11/14 03:41:28;;;;;;;29.50;18.90;;;7.50;99.90;;;;;;5054696;28;20428;-84
2022/11/14 03:43:54;;;;;;;31.43;17.80;;;7.40;99.90;;;;;;5054332;28;20907;-84
2022/11/14 03:46:19;;;;;;;27.67;15.60;;;7.50;99.90;;;;;;5054326;28;20220;-84
2022/11/14 03:48:45;;;;;;;29.87;16.00;;;7.50;99.90;;;;;;5054554;28;20172;-84
2022/11/14 03:51:10;;;;;;;23.23;14.13;;;7.50;99.90;;;;;;5054434;28;20172;-85
2022/11/14 03:53:38;;;;;;;33.73;17.93;;;7.40;99.90;;;;;;5036492;28;20181;-84
2022/11/14 03:56:04;;;;;;;27.80;16.70;;;7.40;99.90;;;;;;5054299;28;20174;-83
2022/11/14 03:58:30;;;;;;;27.17;15.57;;;7.40;99.90;;;;;;5054160;28;20517;-84
2022/11/14 04:00:55;;;;;;;32.73;16.80;;;7.50;99.90;;;;;;5053942;28;20408;-84
2022/11/14 04:03:22;;;;;;;31.30;15.87;;;7.40;99.90;;;;;;5054196;28;20181;-85
2022/11/14 04:05:49;;;;;;;33.47;17.23;;;7.40;99.90;;;;;;5054144;28;20172;-84
2022/11/14 04:08:14;;;;;;;27.50;15.70;;;7.40;99.90;;;;;;5054035;28;20768;-84
2022/11/14 04:10:40;;;;;;;28.30;15.97;;;7.40;99.90;;;;;;5036144;28;20416;-84
2022/11/14 04:13:06;;;;;;;30.40;17.10;;;7.40;99.90;;;;;;5053981;28;20661;-84
2022/11/14 04:15:31;;;;;;;28.83;16.73;;;7.40;99.90;;;;;;5053642;28;20647;-84
2022/11/14 04:17:57;;;;;;;30.73;15.90;;;7.30;99.90;;;;;;5053896;28;20210;-84
2022/11/14 04:20:22;;;;;;;29.80;15.93;;;7.40;99.90;;;;;;5053818;28;20655;-85
2022/11/14 04:22:49;;;;;;;26.90;15.83;;;7.40;99.90;;;;;;5053675;28;20200;-84
2022/11/14 04:25:14;;;;;;;28.60;15.87;;;7.40;99.90;;;;;;5052919;28;20917;-85
2022/11/14 04:27:40;;;;;;;32.07;17.97;;;7.40;99.90;;;;;;5053749;28;20179;-84
2022/11/14 04:30:07;;;;;;;27.87;17.30;;;7.40;99.90;;;;;;5053409;28;20257;-84
2022/11/14 04:32:32;;;;;;;25.27;15.47;;;7.40;99.90;;;;;;5053662;28;20579;-85
2022/11/14 04:34:58;;;;;;;23.70;13.57;;;7.40;99.90;;;;;;5053666;28;20410;-84
2022/11/14 04:37:23;;;;;;;27.90;16.97;;;7.40;99.90;;;;;;5053555;28;20569;-84
2022/11/14 04:39:49;;;;;;;27.03;15.30;;;7.40;99.90;;;;;;5053542;28;20169;-84
2022/11/14 04:42:14;;;;;;;35.13;18.70;;;7.40;99.90;;;;;;5053465;28;20177;-85
2022/11/14 04:44:40;;;;;;;28.20;15.70;;;7.40;99.90;;;;;;5053141;28;20248;-85
2022/11/14 04:47:05;;;;;;;28.43;17.90;;;7.30;99.90;;;;;;5053272;28;20224;-83
2022/11/14 04:49:30;;;;;;;29.00;16.40;;;7.30;99.90;;;;;;5053423;28;20181;-84
2022/11/14 04:51:56;;;;;;;33.23;17.70;;;7.40;99.90;;;;;;5053323;28;20237;-85
2022/11/14 04:54:21;;;;;;;27.80;15.20;;;7.30;99.90;;;;;;5053287;28;20184;-85
2022/11/14 04:56:47;;;;;;;26.27;14.83;;;7.30;99.90;;;;;;5053183;28;20660;-85
2022/11/14 04:59:12;;;;;;;31.27;15.67;;;7.30;99.90;;;;;;5052926;28;20168;-84
2022/11/14 05:01:38;;;;;;;29.83;17.67;;;7.30;99.90;;;;;;5052996;28;20181;-84
2022/11/14 05:04:03;;;;;;;28.03;16.80;;;7.30;99.90;;;;;;5053121;28;20162;-85
2022/11/14 05:06:29;;;;;;;30.70;16.80;;;7.30;99.90;;;;;;5053160;28;20533;-85
2022/11/14 05:08:54;;;;;;;29.37;15.60;;;7.30;99.90;;;;;;5053443;28;20170;-85
2022/11/14 05:11:20;;;;;;;30.60;16.07;;;7.30;99.90;;;;;;5055030;28;20578;-84
2022/11/14 05:13:46;;;;;;;31.90;16.67;;;7.30;99.90;;;;;;5053346;28;20164;-85
2022/11/14 05:16:12;;;;;;;31.30;16.50;;;7.30;99.90;;;;;;5054152;28;20176;-85
2022/11/14 05:18:38;;;;;;;29.67;17.10;;;7.30;99.90;;;;;;5054134;28;20463;-85
2022/11/14 05:21:05;;;;;;;27.90;15.90;;;7.30;99.90;;;;;;5054095;28;20494;-85
2022/11/14 05:23:31;;;;;;;25.90;15.17;;;7.30;99.90;;;;;;5054016;28;20422;-83
2022/11/14 05:26:05;;;;;;;29.00;16.20;;;7.40;99.90;;;;;;5054208;28;20969;-83
2022/11/14 05:28:31;;;;;;;28.07;16.67;;;7.30;99.90;;;;;;5037108;28;20423;-84
2022/11/14 05:31:01;;;;;;;29.57;16.70;;;7.30;99.90;;;;;;5052688;28;20798;-85
2022/11/14 05:33:29;;;;;;;31.13;15.57;;;7.30;99.90;;;;;;5052903;28;20176;-85
2022/11/14 05:35:55;;;;;;;30.60;18.70;;;7.30;99.90;;;;;;5055004;28;20413;-86
2022/11/14 05:38:21;;;;;;;31.40;17.60;;;7.30;99.90;;;;;;5056948;28;20501;-84
2022/11/14 05:40:49;;;;;;;28.77;17.23;;;7.30;99.90;;;;;;5039154;28;20183;-84
2022/11/14 05:43:15;;;;;;;31.50;18.07;;;7.30;99.90;;;;;;5056917;28;20422;-85
2022/11/14 05:45:40;;;;;;;27.93;16.50;;;7.30;99.90;;;;;;5056392;28;20560;-84
2022/11/14 05:48:06;;;;;;;23.17;15.73;;;7.30;99.90;;;;;;5056888;28;20178;-86
2022/11/14 05:50:31;;;;;;;25.77;14.10;;;7.30;99.90;;;;;;5056858;28;20227;-84
2022/11/14 05:52:57;;;;;;;31.50;16.40;;;7.20;99.90;;;;;;5056875;28;20177;-85
2022/11/14 05:55:23;;;;;;;32.97;18.77;;;7.20;99.90;;;;;;5039066;28;20282;-84
2022/11/14 05:57:48;;;;;;;28.57;16.63;;;7.20;99.90;;;;;;5038753;28;20235;-85
2022/11/14 06:00:14;;;;;;;30.50;18.20;;;7.20;99.90;;;;;;5056454;28;20172;-86
2022/11/14 06:02:40;;;;;;;29.77;17.90;;;7.30;99.90;;;;;;5056491;28;20631;-86
2022/11/14 06:05:06;;;;;;;30.27;17.30;;;7.30;99.90;;;;;;5038408;28;20517;-86
2022/11/14 06:07:31;;;;;;;24.37;17.10;;;7.30;99.90;;;;;;5038427;28;20175;-87
2022/11/14 06:09:57;;;;;;;26.20;14.90;;;7.20;99.90;;;;;;5038443;28;20177;-85
2022/11/14 06:12:22;;;;;;;31.03;17.07;;;7.30;99.90;;;;;;5056315;28;20183;-85
2022/11/14 06:14:48;;;;;;;31.50;15.50;;;7.30;99.90;;;;;;5038035;28;20179;-86
2022/11/14 06:17:16;;;;;;;29.77;16.57;;;7.30;99.90;;;;;;5038214;28;20208;-86
2022/11/14 06:19:42;;;;;;;29.63;18.10;;;7.20;99.90;;;;;;5056079;28;20601;-84
2022/11/14 06:22:08;;;;;;;33.87;18.50;;;7.20;99.90;;;;;;5038202;28;20439;-85
2022/11/14 06:24:33;;;;;;;30.90;17.10;;;7.20;99.90;;;;;;5038224;28;20195;-84
2022/11/14 06:26:59;;;;;;;39.43;19.30;;;7.20;99.90;;;;;;5056062;28;20177;-85
2022/11/14 06:29:24;;;;;;;30.20;17.93;;;7.20;99.90;;;;;;5037798;28;20212;-86
2022/11/14 06:31:50;;;;;;;30.77;16.47;;;7.20;99.90;;;;;;5038038;28;20228;-85
2022/11/14 06:34:15;;;;;;;31.70;18.00;;;7.20;99.90;;;;;;5055880;28;20177;-85
2022/11/14 06:36:41;;;;;;;33.27;18.17;;;7.10;99.90;;;;;;5055794;28;20205;-84
2022/11/14 06:39:06;;;;;;;33.23;17.57;;;7.10;99.90;;;;;;5055828;28;20192;-84
2022/11/14 06:41:32;;;;;;;31.50;16.63;;;7.10;99.90;;;;;;5055715;28;20163;-84
2022/11/14 06:43:58;;;;;;;31.00;17.10;;;7.10;99.90;;;;;;5055288;28;20183;-83
2022/11/14 06:46:23;;;;;;;26.97;18.50;;;7.10;99.90;;;;;;5054969;28;20218;-84
2022/11/14 06:48:51;;;;;;;34.73;17.87;;;7.10;99.90;;;;;;5055247;28;20180;-83
2022/11/14 06:51:17;;;;;;;28.67;17.40;;;7.00;99.90;;;;;;5055627;28;20195;-84
2022/11/14 06:53:43;;;;;;;33.47;18.63;;;7.00;99.90;;;;;;5055496;28;20412;-85
2022/11/14 06:56:11;;;;;;;30.43;15.37;;;7.00;99.90;;;;;;5055478;28;20481;-84
2022/11/14 06:58:39;;;;;;;40.30;19.50;;;7.00;99.90;;;;;;5055071;28;20224;-84
2022/11/14 07:01:06;;;;;;;28.90;16.67;;;7.00;99.90;;;;;;5037447;28;20461;-83
2022/11/14 07:03:31;;;;;;;33.80;19.10;;;7.00;99.90;;;;;;5055233;28;20433;-85
2022/11/14 07:05:58;;;;;;;36.43;18.60;;;7.00;99.90;;;;;;5055335;28;20506;-86
2022/11/14 07:08:24;;;;;;;33.47;18.07;;;7.00;99.90;;;;;;5055249;28;20413;-84
2022/11/14 07:10:49;;;;;;;26.37;16.67;;;7.00;99.90;;;;;;5055386;28;20466;-85
2022/11/14 07:13:15;;;;;;;26.20;14.43;;;7.00;99.90;;;;;;5054953;28;20196;-83
2022/11/14 07:15:49;;;;;;;33.43;19.57;;;7.00;99.90;;;;;;5055087;28;20181;-85
2022/11/14 07:18:15;;;;;;;27.43;17.77;;;7.00;99.90;;;;;;5055278;28;20614;-85
2022/11/14 07:20:41;;;;;;;30.90;16.13;;;7.00;99.90;;;;;;5054895;28;20526;-86
2022/11/14 07:23:06;;;;;;;31.40;16.60;;;7.10;99.90;;;;;;5055113;28;20204;-84
2022/11/14 07:25:32;;;;;;;29.73;16.10;;;7.00;99.90;;;;;;5037266;28;20181;-84
2022/11/14 07:27:57;;;;;;;38.70;18.47;;;7.00;99.90;;;;;;5037119;28;20215;-83
2022/11/14 07:30:23;;;;;;;37.40;19.37;;;7.00;99.90;;;;;;5036318;28;20225;-83
2022/11/14 07:32:54;;;;;;;33.77;17.77;;;6.90;99.90;;;;;;5054768;28;20183;-83
2022/11/14 07:35:20;;;;;;;30.10;16.37;;;6.90;99.90;;;;;;5054782;28;20179;-83
2022/11/14 07:37:45;;;;;;;40.70;18.80;;;6.90;99.90;;;;;;5036731;28;20482;-85
2022/11/14 07:40:11;;;;;;;38.60;18.60;;;6.90;99.90;;;;;;5054609;28;20638;-84
2022/11/14 07:42:36;;;;;;;36.73;19.70;;;6.90;99.90;;;;;;5054442;28;20562;-85
2022/11/14 07:45:02;;;;;;;33.17;17.40;;;6.90;99.90;;;;;;5054221;28;20185;-85
2022/11/14 07:47:28;;;;;;;39.67;20.00;;;6.90;99.90;;;;;;5054321;28;20230;-84
2022/11/14 07:49:53;;;;;;;45.03;20.97;;;6.90;99.90;;;;;;5054370;28;20238;-85
2022/11/14 07:52:19;;;;;;;32.03;16.93;;;6.90;99.90;;;;;;5054333;28;20239;-84
2022/11/14 07:54:44;;;;;;;34.00;17.83;;;6.90;99.90;;;;;;5054338;28;20167;-85
2022/11/14 07:57:10;;;;;;;31.67;16.80;;;6.90;99.90;;;;;;5054168;28;20556;-84
2022/11/14 07:59:35;;;;;;;35.70;18.43;;;7.00;99.90;;;;;;5053825;28;20173;-84
2022/11/14 08:02:01;;;;;;;30.90;17.17;;;7.00;99.90;;;;;;5054035;28;20173;-84
2022/11/14 08:04:26;;;;;;;37.87;19.10;;;7.00;99.90;;;;;;5054121;28;20183;-85
2022/11/14 08:06:52;;;;;;;29.73;17.80;;;7.00;99.90;;;;;;5053668;28;20673;-85
2022/11/14 08:09:17;;;;;;;33.03;18.07;;;7.00;99.90;;;;;;5046680;28;20175;-85
2022/11/14 08:11:49;;;;;;;40.17;18.80;;;7.00;99.90;;;;;;5052698;28;20192;-85
2022/11/14 08:14:15;;;;;;;31.53;18.17;;;7.10;99.90;;;;;;5052050;28;20650;-86
2022/11/14 08:16:43;;;;;;;34.60;17.97;;;7.10;99.90;;;;;;5052419;28;20446;-84
2022/11/14 08:19:09;;;;;;;38.57;20.07;;;7.10;99.90;;;;;;5053849;28;20449;-84
2022/11/14 08:21:55;;;;;;;35.37;19.10;;;7.10;99.90;;;;;;5052681;28;20423;-84
2022/11/14 08:24:23;;;;;;;34.60;21.33;;;7.10;99.90;;;;;;5053649;28;20215;-84
2022/11/14 08:26:49;;;;;;;45.80;21.00;;;7.20;99.90;;;;;;5054127;28;20404;-84
2022/11/14 08:29:15;;;;;;;32.67;17.83;;;7.20;99.90;;;;;;5053643;28;20933;-85
2022/11/14 08:31:50;;;;;;;34.57;18.73;;;7.20;99.90;;;;;;5053897;28;20672;-85
2022/11/14 08:34:15;;;;;;;35.20;19.70;;;7.20;99.90;;;;;;5053771;28;20172;-82
2022/11/14 08:36:41;;;;;;;28.70;17.87;;;7.10;99.90;;;;;;5053467;28;20956;-82
2022/11/14 08:39:06;;;;;;;33.70;17.53;;;7.10;99.90;;;;;;5053582;28;20214;-82
2022/11/14 08:41:32;;;;;;;36.70;18.10;;;7.10;99.90;;;;;;5053528;28;20584;-82
2022/11/14 08:43:57;;;;;;;34.63;18.77;;;7.20;99.90;;;;;;5053054;28;20173;-83
2022/11/14 08:46:22;;;;;;;33.73;19.10;;;7.20;99.90;;;;;;5053223;28;20759;-82
2022/11/14 08:48:48;;;;;;;34.43;18.03;;;7.20;99.90;;;;;;5053428;28;20258;-83
2022/11/14 08:51:13;;;;;;;34.13;17.60;;;7.20;99.90;;;;;;5053079;28;20181;-84
2022/11/14 08:53:39;;;;;;;34.03;19.43;;;7.20;99.90;;;;;;5052845;28;20528;-83
2022/11/14 08:56:04;;;;;;;38.37;18.57;;;7.20;99.90;;;;;;5052761;28;20173;-83
2022/11/14 08:58:31;;;;;;;31.00;18.27;;;7.20;99.90;;;;;;5034986;28;20567;-84
2022/11/14 09:01:04;;;;;;;36.00;16.93;;;7.20;99.90;;;;;;5053254;28;20169;-82
2022/11/14 09:03:29;;;;;;;32.57;16.40;;;7.20;99.90;;;;;;5053189;28;20848;-83
2022/11/14 09:05:55;;;;;;;32.20;16.07;;;7.20;99.90;;;;;;5053174;28;20493;-83
2022/11/14 09:08:21;;;;;;;33.20;17.47;;;7.20;99.90;;;;;;5053076;28;20177;-83
2022/11/14 09:10:47;;;;;;;32.00;16.10;;;7.20;99.90;;;;;;5034708;28;20181;-83
2022/11/14 09:13:12;;;;;;;32.10;17.47;;;7.20;99.90;;;;;;5052749;28;20418;-84
2022/11/14 09:15:38;;;;;;;32.00;19.17;;;7.30;99.90;;;;;;5052703;28;20544;-83
2022/11/14 09:18:03;;;;;;;35.40;17.23;;;7.20;99.90;;;;;;5053072;28;20283;-84
2022/11/14 09:20:29;;;;;;;37.53;19.90;;;7.30;99.90;;;;;;5052967;28;20167;-83
2022/11/14 09:22:58;;;;;;;33.33;17.40;;;7.30;99.90;;;;;;5053203;28;20629;-84
2022/11/14 09:25:25;;;;;;;34.40;17.70;;;7.30;99.90;;;;;;5052983;28;20645;-83
2022/11/14 09:27:51;;;;;;;37.00;19.00;;;7.30;99.90;;;;;;5053042;28;20426;-82
2022/11/14 09:30:16;;;;;;;36.47;17.43;;;7.30;99.90;;;;;;5052751;28;20459;-83
2022/11/14 09:32:42;;;;;;;31.27;19.00;;;7.30;99.90;;;;;;5052850;28;20167;-83
2022/11/14 09:35:07;;;;;;;37.50;19.13;;;7.30;99.90;;;;;;5052823;28;20660;-83
2022/11/14 09:37:33;;;;;;;32.00;19.93;;;7.30;99.90;;;;;;5052675;28;20246;-83
2022/11/14 09:39:58;;;;;;;39.47;17.30;;;7.40;99.90;;;;;;5052696;28;20172;-84
2022/11/14 09:42:56;;;;;;;32.83;17.23;;;7.40;99.90;;;;;;5052808;28;20182;-84
2022/11/14 09:45:21;;;;;;;32.23;17.17;;;7.40;99.90;;;;;;5052555;28;20169;-84
2022/11/14 09:48:09;;;;;;;31.37;17.27;;;7.50;99.90;;;;;;5052712;28;20433;-83
2022/11/14 09:50:42;;;;;;;27.63;15.47;;;7.60;99.90;;;;;;5042393;28;20184;-84
2022/11/14 09:53:14;;;;;;;29.37;16.13;;;7.50;99.90;;;;;;5052683;28;20836;-84
2022/11/14 09:55:42;;;;;;;32.63;18.13;;;7.50;99.90;;;;;;5052658;28;20499;-83
2022/11/14 09:58:18;;;;;;;29.17;16.27;;;7.50;99.90;;;;;;5052202;28;20993;-83
2022/11/14 10:00:52;;;;;;;41.03;19.83;;;7.50;99.90;;;;;;5052427;28;20418;-83
2022/11/14 10:03:43;;;;;;;35.60;19.60;;;7.50;99.90;;;;;;5052312;28;20410;-83
2022/11/14 10:06:27;;;;;;;32.20;17.50;;;7.60;99.90;;;;;;5052531;28;20418;-84
2022/11/14 10:09:26;;;;;;;30.67;17.33;;;7.60;99.90;;;;;;5052581;28;20416;-85
2022/11/14 10:12:15;;;;;;;33.07;17.37;;;7.60;99.90;;;;;;5052168;28;20427;-84
2022/11/14 10:15:07;;;;;;;31.60;17.43;;;7.60;99.90;;;;;;5052109;28;20508;-83
2022/11/14 10:18:06;;;;;;;27.73;16.17;;;7.70;99.90;;;;;;5051720;28;20475;-84
2022/11/14 10:20:43;;;;;;;28.93;14.63;;;7.80;99.90;;;;;;5051839;28;20428;-83
2022/11/14 10:23:32;;;;;;;25.87;15.67;;;7.80;99.90;;;;;;5053895;28;20946;-84
2022/11/14 10:25:57;;;;;;;29.03;16.77;;;7.80;99.90;;;;;;5054709;28;20411;-84
2022/11/14 10:28:47;;;;;;;33.73;18.90;;;7.90;99.90;;;;;;5055703;28;20418;-84
2022/11/14 10:31:22;;;;;;;29.07;16.53;;;7.80;99.90;;;;;;5055934;28;20253;-83
2022/11/14 10:34:11;;;;;;;30.13;16.10;;;7.80;99.90;;;;;;5055814;28;20503;-83
2022/11/14 10:36:49;;;;;;;32.53;15.03;;;7.90;99.90;;;;;;5055035;28;20431;-83
2022/11/14 10:39:17;;;;;;;29.13;16.97;;;8.10;99.90;;;;;;5055892;28;20423;-85
2022/11/14 10:41:51;;;;;;;29.60;16.00;;;8.20;99.90;;;;;;5055514;28;20423;-84
2022/11/14 10:44:23;;;;;;;26.90;16.40;;;8.10;99.90;;;;;;5055410;28;20510;-84
2022/11/14 10:46:57;;;;;;;29.47;16.90;;;8.10;99.90;;;;;;5055591;28;20479;-84
2022/11/14 10:49:24;;;;;;;23.93;15.97;;;8.20;99.90;;;;;;5055937;28;20444;-84
2022/11/14 10:51:58;;;;;;;31.50;17.60;;;8.30;99.90;;;;;;5055487;28;20416;-84
2022/11/14 10:54:43;;;;;;;24.03;14.30;;;8.40;99.90;;;;;;5055695;28;20417;-83
2022/11/14 10:57:18;;;;;;;27.90;14.80;;;8.50;99.90;;;;;;5055481;28;20520;-83
2022/11/14 10:59:43;;;;;;;27.70;16.40;;;8.50;99.90;;;;;;5055051;28;20464;-84
2022/11/14 11:02:10;;;;;;;28.33;15.57;;;8.70;99.90;;;;;;5055390;28;20441;-83
2022/11/14 11:04:37;;;;;;;26.20;15.40;;;8.70;99.90;;;;;;5055550;28;20166;-84
2022/11/14 11:07:05;;;;;;;24.53;15.10;;;8.90;99.90;;;;;;5055290;28;20463;-85
2022/11/14 11:12:21;;;;;;;25.13;14.30;;;9.30;99.90;;;;;;5055565;28;20409;-85
2022/11/14 11:15:06;;;;;;;25.43;15.33;;;9.60;99.90;;;;;;5054995;28;20415;-84
2022/11/14 11:17:32;;;;;;;25.50;13.90;;;9.90;1.00;;;;;;5055205;28;20528;-85
2022/11/14 11:20:37;;;;;;;26.93;15.57;;;10.20;1.00;;;;;;5037445;28;20424;-85
2022/11/14 11:23:09;;;;;;;24.90;14.10;;;10.60;99.90;;;;;;5055520;28;20455;-84
2022/11/14 11:25:36;;;;;;;19.20;13.20;;;10.40;1.00;;;;;;5037329;28;20452;-85
2022/11/14 11:28:13;;;;;;;21.10;13.20;;;10.10;1.00;;;;;;5054861;28;20753;-86
2022/11/14 11:30:59;;;;;;;22.23;14.50;;;10.10;1.00;;;;;;5055062;28;20410;-84
2022/11/14 11:33:30;;;;;;;29.53;15.60;;;10.80;1.00;;;;;;5036752;28;20464;-85
2022/11/14 11:36:02;;;;;;;21.00;12.90;;;11.30;34.80;;;;;;5054993;28;20423;-84
2022/11/14 11:38:30;;;;;;;26.37;15.17;;;11.40;99.90;;;;;;5037022;28;20474;-86
2022/11/14 11:41:24;;;;;;;23.07;13.50;;;11.20;1.00;;;;;;5054908;28;20928;-87
2022/11/14 11:43:58;;;;;;;20.97;12.60;;;10.80;1.00;;;;;;5054505;28;20447;-86
2022/11/14 11:46:45;;;;;;;23.50;15.63;;;10.50;1.00;;;;;;5054581;28;20455;-86
2022/11/14 11:49:33;;;;;;;21.27;12.80;;;10.30;1.00;;;;;;5054814;28;20398;-86
2022/11/14 11:52:15;;;;;;;20.73;12.83;;;10.30;1.00;;;;;;5036786;28;20406;-85
2022/11/14 11:54:58;;;;;;;21.47;12.77;;;10.40;1.00;;;;;;5054842;28;20422;-85
2022/11/14 11:57:29;;;;;;;25.50;13.83;;;10.20;1.00;;;;;;5054570;28;21013;-86
2022/11/14 12:00:21;;;;;;;20.27;12.70;;;10.40;13.10;;;;;;5054554;28;20412;-87
2022/11/14 12:02:49;;;;;;;23.00;13.53;;;10.30;1.00;;;;;;5054388;28;20458;-85
2022/11/14 12:05:48;;;;;;;22.77;16.00;;;10.10;1.00;;;;;;5054255;28;20410;-85
2022/11/14 12:08:19;;;;;;;32.60;15.60;;;10.10;1.00;;;;;;5054237;28;20839;-84
2022/11/14 12:10:45;;;;;;;23.87;13.63;;;9.90;87.00;;;;;;5054156;28;20470;-85
2022/11/14 12:13:33;;;;;;;25.60;14.50;;;10.00;58.20;;;;;;5053655;28;20445;-85
2022/11/14 12:16:20;;;;;;;27.87;15.10;;;10.10;60.50;;;;;;5053963;28;20182;-82
2022/11/14 12:18:52;;;;;;;27.57;14.83;;;10.20;1.00;;;;;;5053990;28;20897;-84
2022/11/14 12:21:47;;;;;;;29.50;17.23;;;10.20;18.40;;;;;;5053908;28;20420;-85
2022/11/14 12:24:34;;;;;;;26.83;13.87;;;10.40;1.00;;;;;;5053898;28;20415;-84
2022/11/14 12:27:28;;;;;;;25.03;13.80;;;10.40;1.00;;;;;;5053869;28;20771;-84
2022/11/14 12:30:23;;;;;;;25.40;14.40;;;10.50;1.00;;;;;;5053945;28;20420;-83
2022/11/14 12:33:02;;;;;;;22.33;14.13;;;10.50;1.00;;;;;;5054050;28;20419;-84
2022/11/14 12:35:31;;;;;;;22.57;12.83;;;10.30;1.00;;;;;;5053791;28;20465;-86
2022/11/14 12:38:04;;;;;;;26.30;13.73;;;10.50;1.00;;;;;;5033135;28;20488;-85
2022/11/14 12:40:41;;;;;;;32.00;16.43;;;10.30;1.00;;;;;;5053636;28;20403;-84
2022/11/14 12:43:35;;;;;;;26.93;16.03;;;10.30;38.40;;;;;;5053219;28;20448;-85
2022/11/14 12:46:10;;;;;;;30.27;15.20;;;10.40;2.10;;;;;;5052688;28;20448;-84
2022/11/14 12:48:41;;;;;;;27.37;14.10;;;10.40;9.80;;;;;;5035784;28;20441;-85